This is the latest recevied weather packets stored in our database for station/object PD2SKZ-12. If no packets are shown the sender has not sent any weather packets the latest 10 day(s).
| Time | Temp. | Humidity | Pressure | Rain* | Wind** | Luminosity | Snow |
|---|---|---|---|---|---|---|---|
| 1777567340 | 21.11° C | 24% | 1025 hPa | 0 mm | - | - | - |
| 1777567040 | 21.11° C | 24% | 1025 hPa | 0 mm | - | - | - |
| 1777566463 | 21.67° C | 24% | 1025.1 hPa | 0 mm | - | - | - |
| 1777559240 | 21.67° C | 24% | 1025.8 hPa | 0 mm | - | - | - |
| 1777558940 | 20° C | 25% | 1025.9 hPa | 0 mm | - | - | - |
| 1777558640 | 20.56° C | 25% | 1025.9 hPa | 0 mm | - | - | - |
| 1777557440 | 21.11° C | 25% | 1026.3 hPa | 0 mm | - | - | - |
| 1777554481 | 20° C | 27% | 1026.7 hPa | 0 mm | - | - | - |
| 1777552940 | 18.33° C | 28% | 1026.9 hPa | 0 mm | - | - | - |
| 1777552641 | 18.33° C | 28% | 1027 hPa | 0 mm | - | - | - |
| 1777551461 | 18.33° C | 28% | 1027.2 hPa | 0 mm | - | - | - |
| 1777551181 | 18.33° C | 28% | 1027.3 hPa | 0 mm | - | - | - |
| 1777550840 | 17.78° C | 28% | 1027.3 hPa | 0 mm | - | - | - |
| 1777547841 | 17.78° C | 29% | 1027.6 hPa | 0 mm | - | - | - |
| 1777546341 | 18.33° C | 25% | 1027.7 hPa | 0 mm | - | - | - |
| 1777546041 | 17.78° C | 25% | 1027.9 hPa | 0 mm | - | - | - |
| 1777544870 | 17.22° C | 27% | 1027.9 hPa | 0 mm | - | - | - |
| 1777542741 | 16.67° C | 30% | 1028.3 hPa | 0 mm | - | - | - |
| 1777541561 | 16.67° C | 29% | 1028.2 hPa | 0 mm | - | - | - |
| 1777540641 | 16.11° C | 32% | 1028.3 hPa | 0 mm | - | - | - |
| 1777540341 | 15.56° C | 33% | 1028.4 hPa | 0 mm | - | - | - |
| 1777540041 | 15.56° C | 32% | 1028.5 hPa | 0 mm | - | - | - |
| 1777531341 | 12.22° C | 42% | 1029.1 hPa | 0 mm | - | - | - |
| 1777530741 | 11.67° C | 44% | 1029.2 hPa | 0 mm | - | - | - |
| 1777529861 | 11.11° C | 45% | 1029.1 hPa | 0 mm | - | - | - |
* Rain latest hour (hover to see other rain measurements)
** Current wind speed in m/s (hover to see current wind gust speed)